Terminal Aerodrome Forecast
Issued by NWS Mt. Holly, NJ

Home | Current Version | Previous Version | Text Only | Print | Product List | Glossary On
Versions: 1 2 3 4 5 6 7 8 9 10 11 12 13 14 15 16 17 18 19 20
508
FTUS41 KPHI 260155 AAA
TAFACY
TAF AMD
KACY 260155Z 2602/2624 06012G20KT 6SM -SHRA BR OVC005
      TEMPO 2602/2605 3SM -SHRA BR OVC003
     FM260600 01005KT 1SM BR OVC003
     FM261600 36007KT 5SM BR OVC010
     FM261900 33005KT P6SM BKN020=

USA.gov is the U.S. government's official web portal to all federal, state and local government web resources and services.